Time;durP1;ratioP1;P1;durP2;ratioP2;P2;SDS_P1;SDS_P2;PMS_P1;PMS_P2;Temp;Humidity;BMP_temperature;BMP_pressure;BME280_temperature;BME280_humidity;BME280_pressure;Samples;Min_cycle;Max_cycle;Signal;HPM_P1;HPM_P2
2023/09/22 00:02:03;;;;;;;23.00;17.80;;;;;;;21.85;96.82;100050.50;5041109;28;20109;-65
2023/09/22 00:04:30;;;;;;;25.08;16.60;;;;;;;21.82;97.33;100056.34;5024567;28;20055;-66
2023/09/22 00:06:57;;;;;;;22.85;16.20;;;;;;;21.80;97.06;100053.06;5016510;28;20077;-65
2023/09/22 00:09:24;;;;;;;22.77;16.60;;;;;;;21.81;97.10;100056.56;4977731;28;20062;-66
2023/09/22 00:11:50;;;;;;;26.02;16.67;;;;;;;21.80;97.10;100047.66;4929898;28;20120;-65
2023/09/22 00:14:16;;;;;;;27.30;17.15;;;;;;;21.77;97.27;100049.97;4945261;28;20148;-66
2023/09/22 00:16:42;;;;;;;24.15;15.77;;;;;;;21.70;97.66;100048.09;4945369;28;20490;-66
2023/09/22 00:19:09;;;;;;;24.73;16.77;;;;;;;21.72;97.63;100050.59;4945546;28;20135;-66
2023/09/22 00:21:35;;;;;;;30.00;17.02;;;;;;;21.67;97.65;100050.41;4945507;28;20066;-65
2023/09/22 00:24:04;;;;;;;25.42;16.85;;;;;;;21.70;98.03;100044.56;4929265;28;20042;-66
2023/09/22 00:26:30;;;;;;;23.42;16.35;;;;;;;21.62;98.15;100047.53;4959946;28;20061;-66
2023/09/22 00:28:58;;;;;;;21.90;15.95;;;;;;;21.58;98.27;100052.56;4944833;28;20039;-66
2023/09/22 00:31:25;;;;;;;26.30;17.00;;;;;;;21.55;98.47;100054.88;4976995;28;20088;-66
2023/09/22 00:33:51;;;;;;;24.70;16.83;;;;;;;21.55;98.62;100060.28;4929542;28;20535;-65
2023/09/22 00:36:18;;;;;;;24.48;16.10;;;;;;;21.55;98.53;100058.41;4945153;28;20144;-65
2023/09/22 00:38:44;;;;;;;26.85;16.20;;;;;;;21.57;98.46;100066.31;4993716;28;20156;-66
2023/09/22 00:41:10;;;;;;;25.35;17.25;;;;;;;21.56;98.66;100065.47;5015910;28;20144;-67
2023/09/22 00:43:36;;;;;;;26.45;17.08;;;;;;;21.50;98.51;100057.38;4999255;28;20659;-66
2023/09/22 00:46:02;;;;;;;21.95;16.80;;;;;;;21.54;98.67;100064.03;5004067;28;20048;-66
2023/09/22 00:48:31;;;;;;;27.67;16.67;;;;;;;21.56;98.66;100053.81;5004089;28;20037;-66
2023/09/22 00:50:57;;;;;;;26.55;16.75;;;;;;;21.49;98.61;100058.44;5036416;28;20057;-66
2023/09/22 00:53:23;;;;;;;22.95;16.25;;;;;;;21.50;98.52;100051.97;5002692;28;20045;-65
2023/09/22 00:55:52;;;;;;;26.75;17.65;;;;;;;21.49;98.90;100053.88;5020021;28;20047;-66
2023/09/22 00:58:19;;;;;;;22.50;16.42;;;;;;;21.50;98.87;100060.09;5003740;28;20041;-67
2023/09/22 01:00:49;;;;;;;22.25;15.95;;;;;;;21.46;98.89;100053.47;5020131;28;21039;-65
2023/09/22 01:03:16;;;;;;;;;;;;;;;21.59;98.65;100056.91;5020504;28;20060;-65
2023/09/22 01:05:41;;;;;;;27.65;18.00;;;;;;;21.35;99.31;100052.31;5036336;28;19926;-65
2023/09/22 01:08:07;;;;;;;30.10;16.33;;;;;;;21.33;99.15;100053.53;5036327;28;20534;-66
2023/09/22 01:10:38;;;;;;;28.13;17.73;;;;;;;21.45;99.43;100057.19;5019758;28;20045;-66
2023/09/22 01:13:05;;;;;;;22.42;17.35;;;;;;;21.38;99.36;100051.88;5003469;28;20051;-66
2023/09/22 01:15:33;;;;;;;25.50;17.60;;;;;;;21.42;99.59;100055.78;5019733;28;20051;-66
2023/09/22 01:17:59;;;;;;;23.85;17.88;;;;;;;21.36;99.51;100053.09;5003179;28;20098;-65
2023/09/22 01:20:25;;;;;;;24.98;17.88;;;;;;;21.34;99.17;100061.44;5019977;28;20481;-65
2023/09/22 01:22:51;;;;;;;28.10;17.80;;;;;;;21.30;99.55;100056.69;5019485;28;20132;-65
2023/09/22 01:25:18;;;;;;;24.25;16.98;;;;;;;21.29;99.77;100057.72;5019640;28;20476;-66
2023/09/22 01:27:45;;;;;;;22.83;17.40;;;;;;;21.30;99.64;100056.69;5019601;28;20041;-65
2023/09/22 01:30:11;;;;;;;26.13;17.23;;;;;;;21.27;99.95;100057.94;5019551;28;20052;-66
2023/09/22 01:32:40;;;;;;;22.33;16.80;;;;;;;21.27;100.00;100063.34;5003063;28;20051;-65
2023/09/22 01:35:09;;;;;;;24.95;17.33;;;;;;;21.31;100.00;100061.06;5036271;28;20131;-65
2023/09/22 01:37:44;;;;;;;25.38;17.65;;;;;;;21.39;100.00;100055.38;5003089;28;20041;-66
2023/09/22 01:40:13;;;;;;;24.40;17.00;;;;;;;21.31;99.92;100063.75;5035620;28;20048;-67
2023/09/22 01:42:39;;;;;;;22.92;17.05;;;;;;;21.26;100.00;100055.47;5036335;28;20040;-65
2023/09/22 01:45:06;;;;;;;23.17;16.20;;;;;;;21.18;100.00;100053.84;5019393;28;20083;-66
2023/09/22 01:47:33;;;;;;;24.23;17.42;;;;;;;21.20;100.00;100064.44;5019123;28;20047;-67
2023/09/22 01:49:59;;;;;;;27.20;17.58;;;;;;;21.20;100.00;100064.44;5018811;28;20060;-67
2023/09/22 01:52:27;;;;;;;34.17;18.15;;;;;;;21.18;100.00;100063.81;5019445;28;20049;-66
2023/09/22 01:54:53;;;;;;;27.95;17.63;;;;;;;21.17;100.00;100065.69;5035678;28;20045;-65
2023/09/22 01:57:20;;;;;;;25.42;18.42;;;;;;;21.14;100.00;100065.31;5002493;28;20447;-66
2023/09/22 01:59:46;;;;;;;23.83;17.48;;;;;;;21.17;100.00;100068.38;5019001;28;20468;-66
2023/09/22 02:02:14;;;;;;;29.40;19.08;;;;;;;21.19;100.00;100071.72;5052992;28;20037;-66
2023/09/22 02:04:40;;;;;;;29.05;19.48;;;;;;;21.13;100.00;100069.03;5035261;28;20048;-66
2023/09/22 02:07:07;;;;;;;30.50;19.30;;;;;;;21.13;100.00;100077.13;5018557;28;20048;-66
2023/09/22 02:09:34;;;;;;;25.80;17.90;;;;;;;21.16;100.00;100064.03;5035138;28;20043;-66
2023/09/22 02:12:00;;;;;;;27.90;17.70;;;;;;;21.18;100.00;100072.75;5018553;28;20041;-67
2023/09/22 02:14:27;;;;;;;27.92;18.23;;;;;;;21.15;100.00;100070.50;5018989;28;20131;-66
2023/09/22 02:16:55;;;;;;;27.00;18.05;;;;;;;21.17;100.00;100072.97;5018955;28;20049;-65
2023/09/22 02:19:21;;;;;;;25.45;17.70;;;;;;;21.14;100.00;100068.81;5002293;28;20102;-65
2023/09/22 02:21:47;;;;;;;30.95;20.00;;;;;;;21.16;100.00;100077.53;5018472;28;20048;-65
2023/09/22 02:24:33;;;;;;;30.67;21.40;;;;;;;21.14;100.00;100079.63;5037646;28;20037;-66
2023/09/22 02:26:58;;;;;;;69.47;48.92;;;;;;;21.09;100.00;100076.75;5035035;28;20432;-65
2023/09/22 02:29:24;;;;;;;62.15;45.03;;;;;;;21.08;100.00;100082.38;5034908;28;20053;-65
2023/09/22 02:31:50;;;;;;;43.08;29.42;;;;;;;21.08;100.00;100077.78;5034964;28;20045;-65
2023/09/22 02:34:20;;;;;;;48.28;32.20;;;;;;;21.06;100.00;100079.06;5018393;28;20194;-65
2023/09/22 02:36:48;;;;;;;46.17;35.28;;;;;;;21.05;100.00;100067.41;5018285;28;20072;-66
2023/09/22 02:39:17;;;;;;;49.45;27.48;;;;;;;21.05;100.00;100077.41;5002001;28;20049;-66
2023/09/22 02:41:44;;;;;;;43.47;26.00;;;;;;;21.09;100.00;100084.88;5035077;28;20040;-65
2023/09/22 02:44:13;;;;;;;49.00;24.33;;;;;;;21.07;100.00;100080.69;5018388;28;20473;-64
2023/09/22 02:46:39;;;;;;;43.90;23.63;;;;;;;21.05;100.00;100085.50;5001827;28;20049;-66
2023/09/22 02:49:05;;;;;;;42.03;22.45;;;;;;;21.06;100.00;100081.75;5001462;28;20059;-66
2023/09/22 02:51:31;;;;;;;42.65;20.02;;;;;;;21.11;100.00;100085.47;5014765;28;20057;-68
2023/09/22 02:53:59;;;;;;;35.92;20.55;;;;;;;21.11;100.00;100082.75;4983023;28;20067;-65
2023/09/22 02:56:24;;;;;;;46.78;21.33;;;;;;;21.13;100.00;100091.47;5014405;28;20049;-66
2023/09/22 02:58:50;;;;;;;40.28;19.75;;;;;;;21.12;100.00;100089.84;4998238;28;20037;-65
2023/09/22 03:01:17;;;;;;;44.17;20.38;;;;;;;21.06;100.00;100087.16;5014522;28;20145;-65
2023/09/22 03:03:43;;;;;;;49.13;21.98;;;;;;;21.03;100.00;100090.28;5014650;28;20045;-65
2023/09/22 03:06:12;;;;;;;34.78;21.13;;;;;;;21.12;100.00;100094.41;5014806;28;20393;-66
2023/09/22 03:08:39;;;;;;;44.83;24.05;;;;;;;21.03;100.00;100095.69;5030744;28;20075;-66
2023/09/22 03:11:06;;;;;;;42.83;22.00;;;;;;;21.00;100.00;100101.53;5028293;28;20041;-66
2023/09/22 03:13:33;;;;;;;53.25;23.73;;;;;;;20.97;100.00;100104.66;5031109;28;20076;-66
2023/09/22 03:16:00;;;;;;;44.28;22.80;;;;;;;20.94;100.00;100105.84;4997639;28;20037;-66
2023/09/22 03:18:27;;;;;;;35.17;20.00;;;;;;;20.88;100.00;100103.19;4997694;28;20041;-66
2023/09/22 03:20:53;;;;;;;38.13;20.75;;;;;;;20.87;100.00;100112.31;4997361;28;20571;-66
2023/09/22 03:23:19;;;;;;;29.55;19.48;;;;;;;20.81;100.00;100105.91;4998053;28;20491;-63
2023/09/22 03:25:47;;;;;;;31.30;18.83;;;;;;;20.83;100.00;100105.69;4981923;28;20046;-63
2023/09/22 03:28:15;;;;;;;31.45;19.38;;;;;;;20.81;100.00;100110.47;4982238;28;20041;-65
2023/09/22 03:30:41;;;;;;;26.48;19.67;;;;;;;20.86;100.00;100111.50;4998212;28;20048;-64
2023/09/22 03:33:08;;;;;;;32.40;18.67;;;;;;;20.82;100.00;100118.34;4982108;28;20056;-65
2023/09/22 03:35:36;;;;;;;31.80;18.58;;;;;;;20.85;100.00;100117.13;5005084;28;20042;-69
2023/09/22 03:38:05;;;;;;;32.60;19.20;;;;;;;20.86;100.00;100110.66;4999358;28;20033;-66
2023/09/22 03:40:32;;;;;;;30.10;18.10;;;;;;;20.90;100.00;100118.13;5030597;28;20045;-65
2023/09/22 03:43:03;;;;;;;30.52;21.33;;;;;;;21.01;100.00;100117.50;4992240;28;20049;-65
2023/09/22 03:45:29;;;;;;;36.92;19.92;;;;;;;20.88;100.00;100108.59;5040900;28;20103;-63
2023/09/22 03:47:55;;;;;;;34.30;18.52;;;;;;;20.86;100.00;100116.06;5025342;28;20465;-65
2023/09/22 03:50:22;;;;;;;34.25;18.75;;;;;;;20.90;100.00;100120.84;5032463;28;20067;-65
2023/09/22 03:52:48;;;;;;;35.28;19.40;;;;;;;20.87;100.00;100123.13;5003460;28;20062;-65
2023/09/22 03:55:15;;;;;;;32.08;19.40;;;;;;;20.89;100.00;100129.16;4992081;28;20041;-66
2023/09/22 03:57:41;;;;;;;32.65;18.20;;;;;;;20.88;100.00;100125.59;5001857;28;20052;-66
2023/09/22 04:00:10;;;;;;;31.40;18.50;;;;;;;20.93;100.00;100125.81;4995322;28;20037;-66
2023/09/22 04:02:39;;;;;;;34.03;18.77;;;;;;;20.88;100.00;100127.50;5012975;28;20105;-65
2023/09/22 04:05:05;;;;;;;32.70;19.40;;;;;;;20.82;100.00;100129.16;5029126;28;20607;-69
2023/09/22 04:07:31;;;;;;;34.08;18.92;;;;;;;20.84;100.00;100127.09;4996051;28;20096;-66
2023/09/22 04:09:58;;;;;;;32.72;18.50;;;;;;;20.94;100.00;100127.47;4977311;28;20050;-65
2023/09/22 04:12:25;;;;;;;34.50;19.45;;;;;;;20.98;100.00;100138.69;4994471;28;20084;-65
2023/09/22 04:14:51;;;;;;;37.67;19.25;;;;;;;20.92;100.00;100140.38;4994416;28;20042;-65
2023/09/22 04:17:18;;;;;;;31.80;18.38;;;;;;;20.99;100.00;100140.34;4977830;28;20064;-66
2023/09/22 04:19:44;;;;;;;29.00;18.50;;;;;;;21.03;99.59;100147.00;5010030;28;20112;-65
2023/09/22 04:22:11;;;;;;;34.15;18.80;;;;;;;20.99;99.75;100134.94;4961988;28;20478;-65
2023/09/22 04:24:40;;;;;;;37.10;18.95;;;;;;;21.11;99.26;100144.88;4994204;28;20061;-67
2023/09/22 04:27:09;;;;;;;31.60;18.48;;;;;;;21.10;98.46;100143.22;4962999;28;20049;-66
2023/09/22 04:29:35;;;;;;;33.40;19.02;;;;;;;21.21;98.77;100152.53;4966230;28;20107;-66
2023/09/22 04:32:05;;;;;;;27.92;18.27;;;;;;;21.26;98.26;100150.88;4997920;28;20111;-65
2023/09/22 04:34:30;;;;;;;32.47;17.63;;;;;;;21.15;97.70;100151.53;4981605;28;20092;-66
2023/09/22 04:36:56;;;;;;;28.73;17.75;;;;;;;21.22;97.33;100152.31;4981315;28;20077;-64
2023/09/22 04:39:22;;;;;;;31.45;18.00;;;;;;;21.23;97.20;100159.38;4981251;28;20042;-65
2023/09/22 04:41:48;;;;;;;30.67;17.65;;;;;;;21.25;96.64;100164.59;4981107;28;20045;-66
2023/09/22 04:44:15;;;;;;;30.60;17.75;;;;;;;21.31;96.87;100161.03;4981521;28;20046;-66
2023/09/22 04:46:40;;;;;;;25.73;16.88;;;;;;;21.28;96.13;100161.47;4997322;28;20050;-67
2023/09/22 04:49:10;;;;;;;30.63;17.05;;;;;;;21.34;95.93;100157.91;4981480;28;20542;-65
2023/09/22 04:51:36;;;;;;;27.88;17.10;;;;;;;21.35;95.37;100164.97;4981744;28;20080;-65
2023/09/22 04:54:02;;;;;;;28.60;17.98;;;;;;;21.32;95.36;100168.94;4997479;28;20050;-67
2023/09/22 04:56:28;;;;;;;25.58;16.80;;;;;;;21.35;95.51;100165.81;4981137;28;20042;-63
2023/09/22 04:58:56;;;;;;;27.65;16.38;;;;;;;21.40;94.99;100170.56;4964954;28;20371;-65
2023/09/22 05:01:24;;;;;;;29.35;17.38;;;;;;;21.42;94.96;100169.28;4995869;28;20110;-65
2023/09/22 05:03:50;;;;;;;30.90;17.42;;;;;;;21.44;94.78;100174.47;4996837;28;20048;-65
2023/09/22 05:06:16;;;;;;;31.88;17.17;;;;;;;21.39;94.30;100174.28;4980764;28;20132;-65
2023/09/22 05:08:42;;;;;;;32.90;18.33;;;;;;;21.46;94.36;100177.81;4997044;28;20501;-65
2023/09/22 05:11:08;;;;;;;37.25;18.02;;;;;;;21.47;94.34;100176.75;4965038;28;20396;-65
2023/09/22 05:13:35;;;;;;;35.78;16.98;;;;;;;21.58;93.69;100178.78;4981047;28;20037;-65
2023/09/22 05:16:09;;;;;;;36.70;16.88;;;;;;;21.74;92.73;100189.09;4997140;28;20058;-65
2023/09/22 05:18:36;;;;;;;28.80;17.08;;;;;;;21.73;92.27;100188.25;5029985;28;20045;-65
2023/09/22 05:21:02;;;;;;;24.20;15.20;;;;;;;21.79;91.46;100194.69;5012824;28;20163;-65
2023/09/22 05:23:35;;;;;;;25.08;16.05;;;;;;;21.95;90.37;100196.91;4996501;28;20046;-66
2023/09/22 05:26:08;;;;;;;37.08;16.88;;;;;;;22.04;90.71;100197.47;4996708;28;20046;-66
2023/09/22 05:28:34;;;;;;;30.50;16.52;;;;;;;21.90;89.71;100196.72;4996292;28;20569;-66
2023/09/22 05:31:00;;;;;;;29.98;14.52;;;;;;;21.73;89.68;100199.09;5029424;28;20477;-65
2023/09/22 05:33:28;;;;;;;26.98;15.55;;;;;;;21.78;90.08;100203.88;4980183;28;20092;-63
2023/09/22 05:35:55;;;;;;;34.13;15.25;;;;;;;21.83;89.70;100214.88;4996892;28;20054;-65
2023/09/22 05:38:21;;;;;;;39.42;16.05;;;;;;;21.83;89.19;100209.47;4980117;28;20038;-65
2023/09/22 05:40:47;;;;;;;37.47;14.93;;;;;;;21.93;88.74;100208.97;4979744;28;20046;-65
2023/09/22 05:43:14;;;;;;;28.23;15.02;;;;;;;21.99;88.12;100219.75;4996401;28;20488;-66
2023/09/22 05:45:43;;;;;;;33.70;15.43;;;;;;;22.06;86.97;100228.69;4980711;28;20067;-65
2023/09/22 05:48:09;;;;;;;27.60;14.68;;;;;;;22.10;86.84;100216.38;4980899;28;20470;-65
2023/09/22 05:50:36;;;;;;;44.25;15.25;;;;;;;22.13;86.19;100224.03;4979991;28;20057;-66
2023/09/22 05:53:08;;;;;;;26.67;14.30;;;;;;;22.26;84.81;100223.13;5012571;28;20140;-65
2023/09/22 05:55:34;;;;;;;24.08;13.00;;;;;;;22.35;84.32;100230.78;4996380;28;20052;-65
2023/09/22 05:58:01;;;;;;;22.55;13.40;;;;;;;22.40;83.65;100230.91;4996198;28;20041;-65
2023/09/22 06:00:30;;;;;;;27.98;14.05;;;;;;;22.52;83.59;100225.66;4996111;28;20050;-65
2023/09/22 06:02:56;;;;;;;25.97;13.87;;;;;;;22.58;82.99;100230.19;4979814;28;20055;-66
2023/09/22 06:05:23;;;;;;;26.75;13.07;;;;;;;22.75;81.95;100232.13;4979760;28;20272;-65
2023/09/22 06:07:49;;;;;;;27.20;13.13;;;;;;;22.87;81.36;100243.91;4979814;28;20401;-66
2023/09/22 06:10:16;;;;;;;28.00;13.45;;;;;;;22.88;80.89;100237.41;4979798;28;20141;-65
2023/09/22 06:12:42;;;;;;;19.42;13.80;;;;;;;22.93;80.09;100250.28;4979796;28;20041;-68
2023/09/22 06:15:09;;;;;;;24.63;12.18;;;;;;;23.01;79.55;100248.13;4979896;28;20049;-65
2023/09/22 06:17:36;;;;;;;29.98;13.05;;;;;;;23.01;79.18;100247.31;4995846;28;20141;-65
2023/09/22 06:20:23;;;;;;;20.52;11.70;;;;;;;23.17;78.62;100250.25;5012071;28;20096;-65
2023/09/22 06:22:49;;;;;;;23.67;11.93;;;;;;;23.24;77.30;100251.06;4981958;28;20041;-65
2023/09/22 06:25:16;;;;;;;18.30;11.30;;;;;;;23.35;76.34;100251.34;4979497;28;20114;-65
2023/09/22 06:27:43;;;;;;;21.73;12.73;;;;;;;23.36;76.08;100253.03;4963516;28;20041;-65
2023/09/22 06:30:12;;;;;;;22.38;11.38;;;;;;;23.38;74.73;100256.31;4963620;28;20044;-66
2023/09/22 06:32:42;;;;;;;20.90;11.50;;;;;;;23.60;74.17;100260.25;4980042;28;20046;-65
2023/09/22 06:35:10;;;;;;;24.10;12.10;;;;;;;23.64;73.73;100264.16;4963617;28;20041;-65
2023/09/22 06:37:38;;;;;;;22.90;10.98;;;;;;;23.80;73.99;100258.13;4979158;28;20041;-65
2023/09/22 06:40:15;;;;;;;27.75;10.95;;;;;;;24.03;72.69;100272.63;4979462;28;20044;-65
2023/09/22 06:42:44;;;;;;;20.48;10.70;;;;;;;24.09;71.34;100270.91;4964142;28;20379;-65
2023/09/22 06:45:10;;;;;;;17.90;11.27;;;;;;;24.18;71.08;100273.06;5010790;28;20042;-65
2023/09/22 06:47:43;;;;;;;19.90;10.68;;;;;;;24.24;70.17;100274.03;5010901;28;20066;-65
2023/09/22 06:50:11;;;;;;;23.52;10.32;;;;;;;24.08;69.61;100275.50;4984036;28;20164;-66
2023/09/22 06:52:40;;;;;;;20.52;10.40;;;;;;;24.20;69.72;100275.56;5030433;28;20049;-65
2023/09/22 06:55:09;;;;;;;20.80;9.82;;;;;;;24.22;68.47;100268.81;4997563;28;20049;-65
2023/09/22 06:57:36;;;;;;;17.17;9.48;;;;;;;24.39;67.82;100266.25;4981273;28;20524;-65
2023/09/22 07:00:18;;;;;;;30.77;10.70;;;;;;;24.58;66.07;100270.56;5013910;28;20191;-65
2023/09/22 07:02:47;;;;;;;22.67;9.25;;;;;;;24.80;65.29;100264.38;4983463;28;20057;-65
2023/09/22 07:05:14;;;;;;;16.65;9.10;;;;;;;24.88;65.38;100264.03;5013867;28;20496;-67
2023/09/22 07:07:41;;;;;;;17.50;8.48;;;;;;;25.23;63.12;100271.38;5030316;28;20033;-65
2023/09/22 07:10:09;;;;;;;18.85;8.90;;;;;;;25.46;62.05;100266.75;4981082;28;20092;-65
2023/09/22 07:12:36;;;;;;;38.08;10.18;;;;;;;25.91;60.98;100262.25;4997623;28;20049;-65
2023/09/22 07:15:03;;;;;;;18.85;9.02;;;;;;;26.30;59.33;100275.03;5012591;28;20056;-65
2023/09/22 07:17:31;;;;;;;18.98;7.43;;;;;;;27.08;54.50;100271.44;4995031;28;20068;-65
2023/09/22 07:19:57;;;;;;;29.35;8.55;;;;;;;29.15;48.88;100285.34;4978899;28;20046;-66
2023/09/22 07:22:23;;;;;;;18.92;7.10;;;;;;;31.46;42.50;100280.44;4995220;28;20052;-65
2023/09/22 07:24:52;;;;;;;20.98;6.93;;;;;;;33.90;35.78;100275.34;4962509;28;20041;-65
2023/09/22 07:27:19;;;;;;;18.40;7.65;;;;;;;35.41;31.25;100276.56;4994808;28;20061;-67
2023/09/22 07:29:49;;;;;;;13.98;6.60;;;;;;;36.79;28.38;100277.69;5011395;28;20041;-66
2023/09/22 07:32:16;;;;;;;14.10;6.25;;;;;;;37.30;25.93;100280.81;4974449;28;20054;-65
2023/09/22 07:34:42;;;;;;;24.60;6.47;;;;;;;38.23;24.02;100269.22;4942608;28;20113;-66
2023/09/22 07:37:11;;;;;;;12.27;5.82;;;;;;;39.25;22.45;100276.66;4942264;28;20512;-67
2023/09/22 07:39:38;;;;;;;11.02;5.70;;;;;;;39.85;20.86;100274.47;4942796;28;20046;-67
2023/09/22 07:42:04;;;;;;;12.43;5.60;;;;;;;40.32;20.07;100275.13;4990419;28;20061;-66
2023/09/22 07:44:31;;;;;;;16.63;6.28;;;;;;;40.33;19.87;100279.56;4958265;28;20046;-66
2023/09/22 07:46:58;;;;;;;21.23;6.20;;;;;;;41.03;18.97;100281.38;4926509;28;20401;-66
2023/09/22 07:49:25;;;;;;;18.85;5.72;;;;;;;41.40;18.69;100274.75;4958409;28;20054;-66
2023/09/22 07:51:51;;;;;;;13.85;6.10;;;;;;;42.48;17.21;100265.50;4993166;28;20058;-66
2023/09/22 07:54:18;;;;;;;17.77;5.50;;;;;;;42.64;16.55;100269.19;5026708;28;20168;-66
2023/09/22 07:56:46;;;;;;;14.60;5.47;;;;;;;42.95;16.17;100272.06;4993817;28;20144;-69
2023/09/22 07:59:14;;;;;;;18.77;5.50;;;;;;;43.15;15.84;100268.25;5009934;28;20041;-66
2023/09/22 08:01:42;;;;;;;17.37;5.57;;;;;;;43.39;15.39;100265.31;4993830;28;20064;-67
2023/09/22 08:04:12;;;;;;;20.27;5.50;;;;;;;44.18;14.94;100270.44;5032540;28;20635;-69
2023/09/22 08:06:37;;;;;;;;;;;;;;;45.90;13.40;100273.00;5018358;28;20559;-67
2023/09/22 08:09:04;;;;;;;16.52;5.43;;;;;;;46.07;12.75;100269.66;5017853;28;20284;-66
2023/09/22 08:11:33;;;;;;;15.98;5.30;;;;;;;45.24;13.33;100272.66;5017796;28;20037;-66
2023/09/22 08:14:00;;;;;;;15.77;5.30;;;;;;;45.04;13.52;100265.47;5001428;28;20044;-66
2023/09/22 08:16:26;;;;;;;13.20;4.88;;;;;;;46.21;12.95;100269.06;4985259;28;20190;-67
2023/09/22 08:18:53;;;;;;;12.00;4.88;;;;;;;47.82;11.88;100265.19;4985052;28;20056;-67
2023/09/22 08:21:21;;;;;;;12.55;4.80;;;;;;;49.57;10.12;100261.41;5017538;28;20057;-70
2023/09/22 08:23:47;;;;;;;18.95;4.93;;;;;;;49.92;9.31;100264.19;4985360;28;20041;-66
2023/09/22 08:26:17;;;;;;;12.15;4.07;;;;;;;48.68;9.59;100256.84;5033973;28;20107;-67
2023/09/22 08:28:44;;;;;;;13.25;4.00;;;;;;;48.07;10.20;100256.94;5017699;28;20041;-68
2023/09/22 08:31:11;;;;;;;10.68;4.25;;;;;;;47.84;10.57;100251.50;5034237;28;20056;-66
2023/09/22 08:33:38;;;;;;;17.88;4.28;;;;;;;49.16;9.91;100252.53;5033982;28;20080;-67
2023/09/22 08:36:04;;;;;;;10.88;4.00;;;;;;;50.81;8.71;100252.19;4984779;28;20049;-67
2023/09/22 08:38:31;;;;;;;14.95;3.85;;;;;;;51.65;7.87;100245.94;5000716;28;20038;-67
2023/09/22 08:41:04;;;;;;;14.55;4.45;;;;;;;51.74;8.05;100253.94;5000662;28;20110;-67
2023/09/22 08:43:32;;;;;;;9.55;3.80;;;;;;;51.71;7.52;100251.94;5017094;28;20077;-67
2023/09/22 08:46:01;;;;;;;16.77;4.38;;;;;;;51.87;7.52;100227.47;5001089;28;20048;-67
2023/09/22 08:48:28;;;;;;;16.13;4.25;;;;;;;51.59;7.14;100238.28;5016910;28;20378;-66
2023/09/22 08:50:54;;;;;;;15.95;4.63;;;;;;;50.86;7.49;100245.28;5021558;28;20144;-67
2023/09/22 08:53:21;;;;;;;7.97;3.25;;;;;;;48.98;7.72;100246.84;4981217;28;20037;-66
2023/09/22 08:55:50;;;;;;;9.55;3.75;;;;;;;48.58;8.50;100229.38;4981120;28;20053;-66
2023/09/22 08:58:20;;;;;;;14.52;3.40;;;;;;;48.20;8.27;100230.00;4997668;28;20054;-67
2023/09/22 09:00:53;;;;;;;7.22;3.33;;;;;;;48.78;8.08;100222.19;4981061;28;20145;-67
2023/09/22 09:03:20;;;;;;;10.23;5.38;;;;;;;49.51;7.90;100246.09;4997185;28;20104;-66
2023/09/22 09:05:49;;;;;;;6.45;3.40;;;;;;;47.74;8.09;100246.63;4997644;28;20056;-66
2023/09/22 09:08:18;;;;;;;13.15;3.80;;;;;;;45.87;9.25;100228.84;4981293;28;20081;-67
2023/09/22 09:10:48;;;;;;;9.70;3.55;;;;;;;45.09;9.27;100249.13;4980912;28;20050;-66
2023/09/22 09:13:26;;;;;;;6.78;3.50;;;;;;;44.72;9.99;100228.38;4980329;28;20052;-67
2023/09/22 09:15:54;;;;;;;12.45;4.45;;;;;;;44.87;10.20;100223.88;4981117;28;20477;-70
2023/09/22 09:18:23;;;;;;;12.07;3.72;;;;;;;45.02;9.68;100215.38;4981171;28;20469;-66
2023/09/22 09:21:14;;;;;;;10.23;3.70;;;;;;;46.55;9.00;100218.13;4981449;28;20440;-67
2023/09/22 09:23:54;;;;;;;8.98;5.00;;;;;;;45.66;9.21;100220.88;4997304;28;20060;-67
2023/09/22 09:26:27;;;;;;;14.55;4.10;;;;;;;45.77;8.92;100243.50;4997111;28;20053;-66
2023/09/22 09:28:54;;;;;;;6.88;3.50;;;;;;;44.40;9.52;100233.34;4980714;28;20482;-69
2023/09/22 09:31:20;;;;;;;9.82;3.72;;;;;;;43.51;10.19;100225.22;4996855;28;20048;-66
2023/09/22 09:33:54;;;;;;;10.77;4.20;;;;;;;42.37;10.70;100236.44;4980393;28;20136;-66
2023/09/22 09:36:20;;;;;;;11.30;3.92;;;;;;;41.58;11.35;100226.78;4981489;28;20038;-66
2023/09/22 09:38:46;;;;;;;17.05;4.43;;;;;;;40.80;11.70;100204.91;4980225;28;20052;-67
2023/09/22 09:41:13;;;;;;;19.48;4.30;;;;;;;41.41;11.66;100215.03;4996323;28;20073;-66
2023/09/22 09:43:44;;;;;;;20.67;4.88;;;;;;;41.88;11.16;100212.56;4980642;28;20045;-66
2023/09/22 09:46:13;;;;;;;14.77;3.75;;;;;;;41.82;11.39;100195.25;4996574;28;20474;-66
2023/09/22 09:48:40;;;;;;;13.88;4.40;;;;;;;42.82;10.59;100209.03;4996393;28;20073;-66
2023/09/22 09:51:11;;;;;;;7.63;3.65;;;;;;;43.04;10.12;100206.41;4996167;28;20061;-66
2023/09/22 09:53:41;;;;;;;24.92;5.72;;;;;;;42.33;10.05;100247.53;4980305;28;20478;-67
2023/09/22 09:56:08;;;;;;;12.57;4.78;;;;;;;40.99;10.77;100244.22;4996370;28;20046;-66
2023/09/22 09:58:35;;;;;;;10.73;3.63;;;;;;;40.47;11.42;100210.50;5012231;28;20046;-66
2023/09/22 10:01:04;;;;;;;9.68;3.88;;;;;;;39.90;11.46;100226.97;4995720;28;20547;-66
2023/09/22 10:03:31;;;;;;;9.25;3.97;;;;;;;40.13;11.67;100194.84;5028503;28;20440;-66
2023/09/22 10:05:57;;;;;;;12.18;4.10;;;;;;;40.45;11.45;100209.19;4979711;28;20377;-67
2023/09/22 10:08:25;;;;;;;10.00;2.90;;;;;;;40.27;10.97;100202.97;4995950;28;20167;-67
2023/09/22 10:10:55;;;;;;;5.35;3.60;;;;;;;40.47;11.53;100182.66;5028601;28;20128;-66
2023/09/22 10:13:21;;;;;;;8.52;4.10;;;;;;;39.86;12.06;100195.41;5012344;28;20371;-66
2023/09/22 10:15:58;;;;;;;9.77;4.03;;;;;;;40.71;11.49;100187.47;4995790;28;20061;-66
2023/09/22 10:18:50;;;;;;;10.52;4.10;;;;;;;40.29;11.78;100180.38;4979844;28;20363;-66
2023/09/22 10:21:28;;;;;;;10.88;4.50;;;;;;;41.43;11.24;100207.94;5011922;28;20068;-67
2023/09/22 10:24:13;;;;;;;7.28;3.42;;;;;;;41.56;10.96;100212.41;5028780;28;20042;-66
2023/09/22 10:27:07;;;;;;;8.60;3.72;;;;;;;40.74;11.52;100201.56;4995550;28;20056;-66
2023/09/22 10:29:37;;;;;;;12.93;3.70;;;;;;;40.01;11.56;100194.00;4979479;28;20492;-66
2023/09/22 10:32:15;;;;;;;5.55;3.70;;;;;;;40.70;11.25;100183.91;4996000;28;20514;-66
2023/09/22 10:34:51;;;;;;;8.95;3.60;;;;;;;40.79;11.24;100194.94;4979418;28;20453;-66
2023/09/22 10:37:19;;;;;;;7.63;3.70;;;;;;;40.95;11.21;100205.06;4995736;28;20084;-66
2023/09/22 10:39:55;;;;;;;6.18;3.63;;;;;;;41.10;10.89;100181.31;4995648;28;20049;-66
2023/09/22 10:42:21;;;;;;;6.80;3.33;;;;;;;40.74;11.20;100178.44;5012499;28;20054;-66
2023/09/22 10:45:14;;;;;;;9.07;3.75;;;;;;;40.41;11.67;100192.38;4979098;28;20092;-66
2023/09/22 10:47:40;;;;;;;8.05;3.90;;;;;;;40.21;11.79;100184.81;4993414;28;20107;-66
2023/09/22 10:50:21;;;;;;;7.50;3.50;;;;;;;39.62;12.40;100175.75;5000370;28;20461;-66
2023/09/22 10:52:57;;;;;;;8.15;3.38;;;;;;;38.84;12.73;100175.59;5015211;28;20395;-66
2023/09/22 10:55:40;;;;;;;7.25;3.65;;;;;;;38.52;13.08;100194.41;4998142;28;20053;-66
2023/09/22 10:58:21;;;;;;;6.68;4.00;;;;;;;39.04;12.97;100155.44;5015893;28;20068;-66
2023/09/22 11:01:05;;;;;;;9.70;3.30;;;;;;;39.30;12.46;100195.88;5031176;28;20045;-66
2023/09/22 11:03:35;;;;;;;10.05;3.53;;;;;;;39.80;11.95;100166.13;5014429;28;20048;-66
2023/09/22 11:06:06;;;;;;;6.70;3.72;;;;;;;40.45;11.63;100181.34;5030924;28;20064;-66
2023/09/22 11:08:53;;;;;;;9.93;3.70;;;;;;;40.39;11.79;100175.19;5015207;28;20162;-67
2023/09/22 11:11:20;;;;;;;9.20;3.60;;;;;;;39.25;12.32;100187.72;5015050;28;20106;-66
2023/09/22 11:13:51;;;;;;;8.50;3.90;;;;;;;38.52;12.88;100183.31;5030922;28;20048;-66
2023/09/22 11:16:18;;;;;;;6.28;3.58;;;;;;;37.97;13.17;100178.72;5030605;28;20052;-66
2023/09/22 11:18:45;;;;;;;7.55;3.30;;;;;;;37.76;13.75;100155.56;5014766;28;20053;-67